createdAt,value
2023-04-13T00:00:56.365Z,0.85
2023-04-13T00:05:59.263Z,0.88
2023-04-13T00:11:01.887Z,1.47
2023-04-13T00:16:06.186Z,0.88
2023-04-13T00:21:08.797Z,1.35
2023-04-13T00:26:11.246Z,1.20
2023-04-13T00:31:13.987Z,1.15
2023-04-13T00:36:16.995Z,1.35
2023-04-13T00:41:22.099Z,1.63
2023-04-13T00:46:27.100Z,2.10
2023-04-13T00:51:30.580Z,1.50
2023-04-13T00:56:34.027Z,2.43
2023-04-13T01:01:46.250Z,1.15
2023-04-13T01:07:09.200Z,1.70
2023-04-13T01:12:26.772Z,1.40
2023-04-13T01:17:33.270Z,2.40
2023-04-13T01:22:39.499Z,2.05
2023-04-13T01:27:51.863Z,1.90
2023-04-13T01:32:56.496Z,1.60
2023-04-13T01:38:02.467Z,1.60
2023-04-13T01:43:10.321Z,2.00
2023-04-13T01:48:31.025Z,1.83
2023-04-13T01:53:42.862Z,1.40
2023-04-13T01:58:52.058Z,1.80
2023-04-13T02:03:57.341Z,2.50
2023-04-13T02:09:09.704Z,1.45
2023-04-13T02:14:12.188Z,1.85
2023-04-13T02:19:16.209Z,2.57
2023-04-13T02:24:18.703Z,2.10
2023-04-13T02:29:21.149Z,2.38
2023-04-13T02:34:23.725Z,2.25
2023-04-13T02:39:26.695Z,2.10
2023-04-13T02:44:31.227Z,2.42
2023-04-13T02:49:34.908Z,2.72
2023-04-13T02:54:58.486Z,2.93
2023-04-13T03:00:10.921Z,2.63
2023-04-13T03:05:22.219Z,2.25
2023-04-13T03:10:25.032Z,3.13
2023-04-13T03:15:30.913Z,3.92
2023-04-13T03:20:35.027Z,2.55
2023-04-13T03:25:37.755Z,3.63
2023-04-13T03:30:41.180Z,3.42
2023-04-13T03:35:43.642Z,4.47
2023-04-13T03:40:55.819Z,4.67
2023-04-13T03:46:00.043Z,3.42
2023-04-13T03:51:02.690Z,4.00
2023-04-13T03:56:13.605Z,4.13
2023-04-13T04:01:16.789Z,4.00
2023-04-13T04:06:24.771Z,4.85
2023-04-13T04:11:35.500Z,4.82
2023-04-13T04:16:39.521Z,5.53
2023-04-13T04:21:53.206Z,5.10
2023-04-13T04:26:59.278Z,4.57
2023-04-13T04:32:03.679Z,4.77
2023-04-13T04:37:19.687Z,5.78
2023-04-13T04:42:27.678Z,5.03
2023-04-13T04:47:32.594Z,5.57
2023-04-13T04:52:45.032Z,5.47
2023-04-13T04:57:53.647Z,6.22
2023-04-13T05:03:01.298Z,5.35
2023-04-13T05:08:05.564Z,7.80
2023-04-13T05:13:14.722Z,5.90
2023-04-13T05:18:23.465Z,6.57
2023-04-13T05:23:26.153Z,7.23
2023-04-13T05:28:39.118Z,5.78
2023-04-13T05:33:42.503Z,6.05
2023-04-13T05:38:45.281Z,6.10
2023-04-13T05:43:50.245Z,5.67
2023-04-13T05:48:53.088Z,5.78
2023-04-13T05:53:59.392Z,5.55
2023-04-13T05:59:04.512Z,6.23
2023-04-13T06:04:09.804Z,6.13
2023-04-13T06:09:13.549Z,5.72
2023-04-13T06:14:19.558Z,5.97
2023-04-13T06:19:22.200Z,5.88
2023-04-13T06:24:24.719Z,5.50
2023-04-13T06:29:27.964Z,5.33
2023-04-13T06:34:40.092Z,5.33
2023-04-13T06:39:43.906Z,6.07
2023-04-13T06:44:47.048Z,4.93
2023-04-13T06:49:51.681Z,4.57
2023-04-13T06:54:54.798Z,4.57
2023-04-13T07:00:12.796Z,4.88
2023-04-13T07:05:25.124Z,4.90
2023-04-13T07:10:33.677Z,4.45
2023-04-13T07:15:39.992Z,4.22
2023-04-13T07:20:44.720Z,4.53
2023-04-13T07:25:49.037Z,5.20
2023-04-13T07:30:57.197Z,4.00
2023-04-13T07:36:00.102Z,3.60
2023-04-13T07:41:07.757Z,3.47
2023-04-13T07:46:12.946Z,4.63
2023-04-13T07:51:18.356Z,5.60
2023-04-13T07:56:23.071Z,4.03
2023-04-13T08:01:28.717Z,4.97
2023-04-13T08:06:35.297Z,4.32
2023-04-13T08:11:38.183Z,4.07
2023-04-13T08:16:43.187Z,4.90
2023-04-13T08:21:46.840Z,3.60
2023-04-13T08:26:49.947Z,4.28
2023-04-13T08:31:53.309Z,3.47
2023-04-13T08:36:57.859Z,5.07
2023-04-13T08:42:04.817Z,4.47
2023-04-13T08:47:11.929Z,5.27
2023-04-13T08:52:16.825Z,3.97
2023-04-13T08:57:23.997Z,3.97
2023-04-13T09:02:37.101Z,3.87
2023-04-13T09:07:47.824Z,3.33
2023-04-13T09:12:52.024Z,4.07
2023-04-13T09:17:55.401Z,3.90
2023-04-13T09:22:58.395Z,3.97
2023-04-13T09:28:01.296Z,3.78
2023-04-13T09:33:08.872Z,4.25
2023-04-13T09:38:15.661Z,3.53
2023-04-13T09:43:19.748Z,3.75
2023-04-13T09:48:23.413Z,3.53
2023-04-13T09:53:26.035Z,4.33
2023-04-13T09:58:30.190Z,4.10
2023-04-13T10:03:34.995Z,5.43
2023-04-13T10:08:39.323Z,4.45
2023-04-13T10:13:48.650Z,4.00
2023-04-13T10:19:06.675Z,3.83
2023-04-13T10:24:14.255Z,4.15
2023-04-13T10:29:30.829Z,4.60
2023-04-13T10:34:39.285Z,4.32
2023-04-13T10:39:41.825Z,3.78
2023-04-13T10:44:52.051Z,4.10
2023-04-13T10:49:54.719Z,4.47
2023-04-13T10:54:57.946Z,4.70
2023-04-13T11:00:00.962Z,3.53
2023-04-13T11:05:04.504Z,3.83
2023-04-13T11:10:07.880Z,3.47
2023-04-13T11:15:10.913Z,3.50
2023-04-13T11:20:13.504Z,4.80
2023-04-13T11:25:16.666Z,5.40
2023-04-13T11:30:22.688Z,4.65
2023-04-13T11:35:25.493Z,4.10
2023-04-13T11:40:28.478Z,4.10
2023-04-13T11:45:31.354Z,4.18
2023-04-13T11:50:34.489Z,5.03
2023-04-13T11:55:51.933Z,4.23
2023-04-13T12:00:59.913Z,4.47
2023-04-13T12:06:06.050Z,4.13
2023-04-13T12:11:39.191Z,4.13
2023-04-13T12:21:40.161Z,2.67
2023-04-13T12:27:17.208Z,3.70
2023-04-13T12:32:11.982Z,3.60
2023-04-13T12:37:14.500Z,3.08
2023-04-13T12:42:17.286Z,2.78
2023-04-13T12:47:19.985Z,2.60
2023-04-13T12:52:22.716Z,2.72
2023-04-13T12:57:25.369Z,2.47
2023-04-13T13:02:31.294Z,2.73
2023-04-13T13:07:33.968Z,3.00
2023-04-13T13:12:36.566Z,2.40
2023-04-13T13:17:42.636Z,2.90
2023-04-13T13:22:45.157Z,2.73
2023-04-13T13:32:53.305Z,2.80
2023-04-13T13:37:55.815Z,2.57
2023-04-13T13:42:58.452Z,2.10
2023-04-13T13:48:01.207Z,2.25
2023-04-13T13:53:14.379Z,2.60
2023-04-13T13:58:18.000Z,1.90
2023-04-13T14:03:21.286Z,2.28
2023-04-13T14:08:23.996Z,2.93
2023-04-13T14:13:26.899Z,1.90
2023-04-13T14:18:29.875Z,2.70
2023-04-13T14:23:32.958Z,1.95
2023-04-13T14:28:37.052Z,1.60
2023-04-13T14:33:39.647Z,2.05
2023-04-13T14:38:42.576Z,1.98
2023-04-13T14:43:45.124Z,4.60
2023-04-13T14:48:47.667Z,7.55
2023-04-13T14:53:50.400Z,7.65
2023-04-13T14:58:53.389Z,7.03
2023-04-13T15:03:56.400Z,3.10
2023-04-13T15:09:00.757Z,2.30
2023-04-13T15:14:04.010Z,2.53
2023-04-13T15:19:06.541Z,2.10
2023-04-13T15:24:11.897Z,2.95
2023-04-13T15:29:14.474Z,3.03
2023-04-13T15:34:17.120Z,2.83
2023-04-13T15:39:19.823Z,2.35
2023-04-13T15:44:22.558Z,2.75
2023-04-13T15:49:25.209Z,2.57
2023-04-13T15:54:27.673Z,3.37
2023-04-13T15:59:31.188Z,3.10
2023-04-13T16:04:33.862Z,3.70
2023-04-13T16:09:36.676Z,3.10
2023-04-13T16:14:42.165Z,4.30
2023-04-13T16:19:47.326Z,2.30
2023-04-13T16:24:49.925Z,3.03
2023-04-13T16:29:52.574Z,3.30
2023-04-13T16:34:55.573Z,3.13
2023-04-13T16:39:58.135Z,2.77
2023-04-13T16:45:03.501Z,2.60
2023-04-13T16:50:08.541Z,2.70
2023-04-13T16:55:15.224Z,2.53
2023-04-13T17:00:21.221Z,1.80
2023-04-13T17:05:28.534Z,2.22
2023-04-13T17:10:31.020Z,1.50
2023-04-13T17:15:33.653Z,1.80
2023-04-13T17:20:40.085Z,2.03
2023-04-13T17:25:45.508Z,1.60
2023-04-13T17:30:48.087Z,1.90
2023-04-13T17:35:56.769Z,2.00
2023-04-13T17:40:59.289Z,2.00
2023-04-13T17:46:04.299Z,1.75
2023-04-13T17:51:12.795Z,1.90
2023-04-13T17:56:18.899Z,1.98
2023-04-13T18:01:25.911Z,2.75
2023-04-13T18:06:34.519Z,1.97
2023-04-13T18:11:37.131Z,2.42
2023-04-13T18:16:39.826Z,4.00
2023-04-13T18:21:42.457Z,3.87
2023-04-13T18:26:45.092Z,3.17
2023-04-13T18:31:47.827Z,2.80
2023-04-13T18:36:50.465Z,2.83
2023-04-13T18:41:53.046Z,2.40
2023-04-13T18:46:58.963Z,2.17
2023-04-13T18:52:01.650Z,2.92
2023-04-13T18:57:04.320Z,1.73
2023-04-13T19:02:06.834Z,2.88
2023-04-13T19:07:09.400Z,1.95
2023-04-13T19:12:11.978Z,1.80
2023-04-13T19:17:14.658Z,1.52
2023-04-13T19:22:17.096Z,1.40
2023-04-13T19:27:19.647Z,2.00
2023-04-13T19:32:22.468Z,2.55
2023-04-13T19:37:24.976Z,2.90
2023-04-13T19:42:28.863Z,2.60
2023-04-13T19:47:31.441Z,2.93
2023-04-13T19:52:34.480Z,4.45
2023-04-13T19:57:42.555Z,5.90
2023-04-13T20:02:47.332Z,6.10
2023-04-13T20:07:50.064Z,6.10
2023-04-13T20:12:52.728Z,6.50
2023-04-13T20:17:55.842Z,4.23
2023-04-13T20:22:58.289Z,4.20
2023-04-13T20:28:00.854Z,3.80
2023-04-13T20:33:05.594Z,3.27
2023-04-13T20:38:10.192Z,2.92
2023-04-13T20:43:15.746Z,3.05
2023-04-13T20:53:41.918Z,2.47
2023-04-13T20:58:46.317Z,1.77
2023-04-13T21:03:49.183Z,2.00
2023-04-13T21:08:53.048Z,2.13
2023-04-13T21:13:55.714Z,2.30
2023-04-13T21:18:58.336Z,1.57
2023-04-13T21:24:01.287Z,2.30
2023-04-13T21:29:04.495Z,1.90
2023-04-13T21:34:08.421Z,2.10
2023-04-13T21:39:11.687Z,1.92
2023-04-13T21:44:28.870Z,2.03
2023-04-13T21:49:32.831Z,1.60
2023-04-13T21:54:38.566Z,2.10
2023-04-13T21:59:41.364Z,2.00
2023-04-13T22:04:43.838Z,1.90
2023-04-13T22:09:46.195Z,1.67
2023-04-13T22:14:48.635Z,2.43
2023-04-13T22:19:51.188Z,2.30
2023-04-13T22:24:53.839Z,2.00
2023-04-13T22:29:56.306Z,2.23
2023-04-13T22:34:58.825Z,2.73
2023-04-13T22:40:02.648Z,3.42
2023-04-13T22:45:05.552Z,3.57
2023-04-13T22:50:08.296Z,3.67
2023-04-13T22:55:10.775Z,5.03
2023-04-13T23:00:13.995Z,4.30
2023-04-13T23:05:16.841Z,3.13
2023-04-13T23:10:19.561Z,2.80
2023-04-13T23:15:22.096Z,4.43
2023-04-13T23:20:24.778Z,6.68
2023-04-13T23:25:27.339Z,7.30
2023-04-13T23:30:30.068Z,6.70
2023-04-13T23:35:32.648Z,5.10
2023-04-13T23:40:35.252Z,4.10
2023-04-13T23:45:38.268Z,3.35
2023-04-13T23:50:40.804Z,4.40
2023-04-13T23:55:43.308Z,3.90
